sensor_id;sensor_type;location;lat;lon;timestamp;pressure;altitude;pressure_sealevel;temperature;humidity
9423;BME280;65863;49.506;10.400;2023-05-03T00:00:49;98886.44;;;6.65;86.30
9423;BME280;65863;49.506;10.400;2023-05-03T00:03:52;98910.59;;;6.74;86.52
9423;BME280;65863;49.506;10.400;2023-05-03T00:06:36;98904.47;;;6.58;86.45
9423;BME280;65863;49.506;10.400;2023-05-03T00:09:19;98902.69;;;6.49;87.15
9423;BME280;65863;49.506;10.400;2023-05-03T00:12:04;98907.97;;;6.42;87.16
9423;BME280;65863;49.506;10.400;2023-05-03T00:14:48;98849.06;;;6.06;87.24
9423;BME280;65863;49.506;10.400;2023-05-03T00:17:33;98918.06;;;6.33;87.73
9423;BME280;65863;49.506;10.400;2023-05-03T00:20:17;98860.59;;;5.81;87.78
9423;BME280;65863;49.506;10.400;2023-05-03T00:23:01;98865.25;;;6.01;87.82
9423;BME280;65863;49.506;10.400;2023-05-03T00:25:45;98886.59;;;6.16;88.07
9423;BME280;65863;49.506;10.400;2023-05-03T00:28:30;98891.13;;;6.13;88.31
9423;BME280;65863;49.506;10.400;2023-05-03T00:31:14;98865.75;;;6.00;88.46
9423;BME280;65863;49.506;10.400;2023-05-03T00:33:58;98853.50;;;5.80;88.23
9423;BME280;65863;49.506;10.400;2023-05-03T00:36:42;98879.13;;;5.90;88.11
9423;BME280;65863;49.506;10.400;2023-05-03T00:39:28;98897.94;;;6.01;87.95
9423;BME280;65863;49.506;10.400;2023-05-03T00:42:14;98865.31;;;5.64;88.10
9423;BME280;65863;49.506;10.400;2023-05-03T00:44:58;98869.16;;;5.72;87.82
9423;BME280;65863;49.506;10.400;2023-05-03T00:47:42;98879.09;;;5.84;88.15
9423;BME280;65863;49.506;10.400;2023-05-03T00:50:26;98857.75;;;5.70;88.42
9423;BME280;65863;49.506;10.400;2023-05-03T00:53:10;98853.56;;;5.48;88.62
9423;BME280;65863;49.506;10.400;2023-05-03T00:55:54;98764.88;;;4.81;88.79
9423;BME280;65863;49.506;10.400;2023-05-03T00:58:38;98876.88;;;5.51;88.84
9423;BME280;65863;49.506;10.400;2023-05-03T01:01:52;98896.22;;;5.66;88.91
9423;BME280;65863;49.506;10.400;2023-05-03T01:04:36;98896.91;;;5.55;89.30
9423;BME280;65863;49.506;10.400;2023-05-03T01:07:37;98855.03;;;5.38;89.61
9423;BME280;65863;49.506;10.400;2023-05-03T01:16:20;98895.94;;;6.07;90.79
9423;BME280;65863;49.506;10.400;2023-05-03T01:19:21;98873.66;;;6.07;90.64
9423;BME280;65863;49.506;10.400;2023-05-03T01:25:13;98840.19;;;6.07;90.68
9423;BME280;65863;49.506;10.400;2023-05-03T01:27:58;98872.00;;;6.49;90.72
9423;BME280;65863;49.506;10.400;2023-05-03T01:30:43;98875.53;;;6.61;90.66
9423;BME280;65863;49.506;10.400;2023-05-03T01:33:42;98848.34;;;6.28;90.46
9423;BME280;65863;49.506;10.400;2023-05-03T01:36:30;98884.63;;;6.45;90.48
9423;BME280;65863;49.506;10.400;2023-05-03T01:42:26;98815.72;;;5.74;90.18
9423;BME280;65863;49.506;10.400;2023-05-03T01:45:11;98858.09;;;5.95;89.90
9423;BME280;65863;49.506;10.400;2023-05-03T01:47:55;98838.50;;;5.72;89.57
9423;BME280;65863;49.506;10.400;2023-05-03T01:50:40;98871.78;;;5.93;89.57
9423;BME280;65863;49.506;10.400;2023-05-03T01:53:24;98888.56;;;5.98;90.00
9423;BME280;65863;49.506;10.400;2023-05-03T01:56:08;98857.31;;;5.83;90.26
9423;BME280;65863;49.506;10.400;2023-05-03T01:58:52;98842.81;;;5.73;90.36
9423;BME280;65863;49.506;10.400;2023-05-03T02:01:36;98876.41;;;6.01;90.26
9423;BME280;65863;49.506;10.400;2023-05-03T02:04:20;98832.97;;;5.78;90.13
9423;BME280;65863;49.506;10.400;2023-05-03T02:07:04;98864.75;;;6.03;90.81
9423;BME280;65863;49.506;10.400;2023-05-03T02:09:49;98875.44;;;6.16;90.54
9423;BME280;65863;49.506;10.400;2023-05-03T02:12:34;98870.13;;;6.24;90.78
9423;BME280;65863;49.506;10.400;2023-05-03T02:15:18;98848.28;;;6.11;90.52
9423;BME280;65863;49.506;10.400;2023-05-03T02:18:05;98882.56;;;6.23;90.56
9423;BME280;65863;49.506;10.400;2023-05-03T02:20:51;98834.50;;;5.84;90.50
9423;BME280;65863;49.506;10.400;2023-05-03T02:23:35;98890.41;;;6.18;90.46
9423;BME280;65863;49.506;10.400;2023-05-03T02:26:19;98894.66;;;6.02;90.04
9423;BME280;65863;49.506;10.400;2023-05-03T02:29:03;98853.69;;;5.71;90.44
9423;BME280;65863;49.506;10.400;2023-05-03T02:31:49;98867.69;;;5.88;90.39
9423;BME280;65863;49.506;10.400;2023-05-03T02:34:34;98849.25;;;5.96;90.62
9423;BME280;65863;49.506;10.400;2023-05-03T02:37:19;98834.69;;;5.69;90.57
9423;BME280;65863;49.506;10.400;2023-05-03T02:40:04;98854.91;;;5.59;90.35
9423;BME280;65863;49.506;10.400;2023-05-03T02:42:48;98843.38;;;5.34;90.23
9423;BME280;65863;49.506;10.400;2023-05-03T02:45:42;98857.78;;;5.32;90.62
9423;BME280;65863;49.506;10.400;2023-05-03T02:48:25;98893.06;;;5.47;90.45
9423;BME280;65863;49.506;10.400;2023-05-03T02:51:11;98864.09;;;5.27;90.36
9423;BME280;65863;49.506;10.400;2023-05-03T02:53:55;98848.66;;;4.94;90.51
9423;BME280;65863;49.506;10.400;2023-05-03T02:56:39;98843.06;;;4.89;90.47
9423;BME280;65863;49.506;10.400;2023-05-03T02:59:23;98856.44;;;4.85;90.59
9423;BME280;65863;49.506;10.400;2023-05-03T03:02:08;98875.47;;;4.92;90.44
9423;BME280;65863;49.506;10.400;2023-05-03T03:04:54;98861.25;;;4.84;90.41
9423;BME280;65863;49.506;10.400;2023-05-03T03:07:39;98854.59;;;4.76;90.67
9423;BME280;65863;49.506;10.400;2023-05-03T03:10:24;98867.09;;;4.92;90.59
9423;BME280;65863;49.506;10.400;2023-05-03T03:13:08;98872.28;;;5.05;90.82
9423;BME280;65863;49.506;10.400;2023-05-03T03:15:55;98876.22;;;5.24;91.15
9423;BME280;65863;49.506;10.400;2023-05-03T03:18:39;98849.06;;;5.13;91.36
9423;BME280;65863;49.506;10.400;2023-05-03T03:21:23;98887.75;;;5.43;91.49
9423;BME280;65863;49.506;10.400;2023-05-03T03:24:07;98836.66;;;5.14;91.52
9423;BME280;65863;49.506;10.400;2023-05-03T03:26:52;98875.31;;;5.44;91.68
9423;BME280;65863;49.506;10.400;2023-05-03T03:29:36;98886.25;;;5.48;91.53
9423;BME280;65863;49.506;10.400;2023-05-03T03:32:21;98877.38;;;5.49;91.74
9423;BME280;65863;49.506;10.400;2023-05-03T03:35:07;98846.94;;;5.34;91.72
9423;BME280;65863;49.506;10.400;2023-05-03T03:37:52;98867.75;;;5.45;91.78
9423;BME280;65863;49.506;10.400;2023-05-03T03:40:37;98860.59;;;5.38;91.94
9423;BME280;65863;49.506;10.400;2023-05-03T03:43:22;98879.41;;;5.49;92.09
9423;BME280;65863;49.506;10.400;2023-05-03T03:46:07;98887.53;;;5.52;92.17
9423;BME280;65863;49.506;10.400;2023-05-03T03:48:51;98871.75;;;5.38;92.14
9423;BME280;65863;49.506;10.400;2023-05-03T03:51:35;98897.88;;;5.46;92.26
9423;BME280;65863;49.506;10.400;2023-05-03T03:54:19;98901.44;;;5.52;92.12
9423;BME280;65863;49.506;10.400;2023-05-03T03:57:06;98861.59;;;5.35;92.28
9423;BME280;65863;49.506;10.400;2023-05-03T03:59:51;98887.47;;;5.41;92.20
9423;BME280;65863;49.506;10.400;2023-05-03T04:02:36;98862.16;;;5.07;91.92
9423;BME280;65863;49.506;10.400;2023-05-03T04:05:20;98876.50;;;4.94;92.33
9423;BME280;65863;49.506;10.400;2023-05-03T04:08:05;98887.88;;;4.91;91.92
9423;BME280;65863;49.506;10.400;2023-05-03T04:10:51;98914.56;;;5.09;92.39
9423;BME280;65863;49.506;10.400;2023-05-03T04:13:36;98937.19;;;5.22;92.08
9423;BME280;65863;49.506;10.400;2023-05-03T04:16:21;98914.75;;;4.99;92.00
9423;BME280;65863;49.506;10.400;2023-05-03T04:19:06;98890.31;;;4.83;92.14
9423;BME280;65863;49.506;10.400;2023-05-03T04:21:54;98921.66;;;5.10;92.31
9423;BME280;65863;49.506;10.400;2023-05-03T04:24:39;98930.88;;;5.22;92.59
9423;BME280;65863;49.506;10.400;2023-05-03T04:27:24;98939.75;;;5.26;92.79
9423;BME280;65863;49.506;10.400;2023-05-03T04:30:09;98924.22;;;5.13;92.38
9423;BME280;65863;49.506;10.400;2023-05-03T04:32:55;98936.50;;;5.33;92.93
9423;BME280;65863;49.506;10.400;2023-05-03T04:35:43;98923.56;;;5.30;92.82
9423;BME280;65863;49.506;10.400;2023-05-03T04:38:30;98940.06;;;5.33;92.50
9423;BME280;65863;49.506;10.400;2023-05-03T04:41:17;98952.47;;;5.70;93.05
9423;BME280;65863;49.506;10.400;2023-05-03T04:44:04;98930.13;;;5.59;92.74
9423;BME280;65863;49.506;10.400;2023-05-03T04:46:49;98907.03;;;5.52;92.47
9423;BME280;65863;49.506;10.400;2023-05-03T04:49:33;98934.03;;;5.84;92.06
9423;BME280;65863;49.506;10.400;2023-05-03T04:52:18;98917.03;;;5.76;92.13
9423;BME280;65863;49.506;10.400;2023-05-03T04:55:03;98938.75;;;5.98;91.96
9423;BME280;65863;49.506;10.400;2023-05-03T04:57:49;98933.91;;;5.99;92.08
9423;BME280;65863;49.506;10.400;2023-05-03T05:00:34;98975.59;;;6.19;91.69
9423;BME280;65863;49.506;10.400;2023-05-03T05:03:24;98920.22;;;6.01;91.66
9423;BME280;65863;49.506;10.400;2023-05-03T05:06:09;98944.13;;;6.19;91.38
9423;BME280;65863;49.506;10.400;2023-05-03T05:08:56;98886.03;;;6.00;91.10
9423;BME280;65863;49.506;10.400;2023-05-03T05:11:40;98918.84;;;6.34;90.88
9423;BME280;65863;49.506;10.400;2023-05-03T05:14:25;98938.44;;;6.57;90.95
9423;BME280;65863;49.506;10.400;2023-05-03T05:17:11;98966.06;;;6.49;90.86
9423;BME280;65863;49.506;10.400;2023-05-03T05:19:55;98969.13;;;6.57;90.45
9423;BME280;65863;49.506;10.400;2023-05-03T05:22:40;98953.94;;;6.69;90.57
9423;BME280;65863;49.506;10.400;2023-05-03T05:25:24;98938.72;;;6.70;90.15
9423;BME280;65863;49.506;10.400;2023-05-03T05:28:09;98960.84;;;6.85;90.21
9423;BME280;65863;49.506;10.400;2023-05-03T05:30:54;98949.91;;;6.81;89.26
9423;BME280;65863;49.506;10.400;2023-05-03T05:33:39;98927.56;;;6.70;88.81
9423;BME280;65863;49.506;10.400;2023-05-03T05:36:25;98964.41;;;7.14;88.86
9423;BME280;65863;49.506;10.400;2023-05-03T05:39:09;98928.59;;;6.84;87.78
9423;BME280;65863;49.506;10.400;2023-05-03T05:41:54;98971.72;;;6.77;87.48
9423;BME280;65863;49.506;10.400;2023-05-03T05:44:39;98923.22;;;6.63;87.21
9423;BME280;65863;49.506;10.400;2023-05-03T05:47:24;98951.69;;;6.90;87.08
9423;BME280;65863;49.506;10.400;2023-05-03T05:50:10;98964.16;;;7.12;86.66
9423;BME280;65863;49.506;10.400;2023-05-03T05:52:54;98991.34;;;7.39;85.96
9423;BME280;65863;49.506;10.400;2023-05-03T05:55:41;98983.97;;;7.42;85.70
9423;BME280;65863;49.506;10.400;2023-05-03T05:58:25;98965.69;;;7.41;85.62
9423;BME280;65863;49.506;10.400;2023-05-03T06:01:12;98971.03;;;7.39;85.00
9423;BME280;65863;49.506;10.400;2023-05-03T06:03:56;98975.34;;;7.51;84.59
9423;BME280;65863;49.506;10.400;2023-05-03T06:06:40;98972.81;;;7.53;84.48
9423;BME280;65863;49.506;10.400;2023-05-03T06:09:24;98965.16;;;7.71;83.77
9423;BME280;65863;49.506;10.400;2023-05-03T06:12:11;98987.41;;;8.22;83.41
9423;BME280;65863;49.506;10.400;2023-05-03T06:15:02;98930.81;;;7.87;82.67
9423;BME280;65863;49.506;10.400;2023-05-03T06:17:52;98900.09;;;7.76;82.37
9423;BME280;65863;49.506;10.400;2023-05-03T06:20:36;98962.97;;;8.34;81.79
9423;BME280;65863;49.506;10.400;2023-05-03T06:23:21;98975.59;;;8.52;80.99
9423;BME280;65863;49.506;10.400;2023-05-03T06:26:05;98973.81;;;8.54;80.09
9423;BME280;65863;49.506;10.400;2023-05-03T06:28:50;98870.41;;;7.67;79.39
9423;BME280;65863;49.506;10.400;2023-05-03T06:31:35;98976.16;;;8.39;79.08
9423;BME280;65863;49.506;10.400;2023-05-03T06:34:20;98997.09;;;8.85;78.88
9423;BME280;65863;49.506;10.400;2023-05-03T06:37:09;98996.22;;;9.02;78.32
9423;BME280;65863;49.506;10.400;2023-05-03T06:39:53;98955.94;;;8.69;77.53
9423;BME280;65863;49.506;10.400;2023-05-03T06:42:37;98968.28;;;8.90;77.11
9423;BME280;65863;49.506;10.400;2023-05-03T06:45:25;98975.38;;;8.97;76.61
9423;BME280;65863;49.506;10.400;2023-05-03T06:48:09;98965.00;;;8.86;76.04
9423;BME280;65863;49.506;10.400;2023-05-03T06:50:53;98981.41;;;8.65;75.79
9423;BME280;65863;49.506;10.400;2023-05-03T06:53:37;98992.72;;;8.90;76.17
9423;BME280;65863;49.506;10.400;2023-05-03T06:56:22;98994.03;;;8.89;76.49
9423;BME280;65863;49.506;10.400;2023-05-03T06:59:07;98954.03;;;8.41;76.41
9423;BME280;65863;49.506;10.400;2023-05-03T07:01:52;98966.50;;;8.87;76.72
9423;BME280;65863;49.506;10.400;2023-05-03T07:04:36;98988.03;;;9.09;76.32
9423;BME280;65863;49.506;10.400;2023-05-03T07:07:20;98945.06;;;10.11;75.61
9423;BME280;65863;49.506;10.400;2023-05-03T07:10:05;98958.22;;;11.17;73.32
9423;BME280;65863;49.506;10.400;2023-05-03T07:12:49;98926.59;;;12.16;69.82
9423;BME280;65863;49.506;10.400;2023-05-03T07:15:34;98933.84;;;11.98;65.93
9423;BME280;65863;49.506;10.400;2023-05-03T07:18:18;98863.25;;;10.97;65.00
9423;BME280;65863;49.506;10.400;2023-05-03T07:21:02;98874.50;;;9.82;65.76
9423;BME280;65863;49.506;10.400;2023-05-03T07:23:49;98918.38;;;10.24;67.53
9423;BME280;65863;49.506;10.400;2023-05-03T07:26:33;98973.81;;;10.61;68.29
9423;BME280;65863;49.506;10.400;2023-05-03T07:29:17;98965.31;;;10.48;68.47
9423;BME280;65863;49.506;10.400;2023-05-03T07:32:01;98919.88;;;10.49;68.99
9423;BME280;65863;49.506;10.400;2023-05-03T07:34:45;98930.81;;;10.09;69.52
9423;BME280;65863;49.506;10.400;2023-05-03T07:37:29;98938.47;;;9.84;70.24
9423;BME280;65863;49.506;10.400;2023-05-03T07:40:14;98948.41;;;10.54;71.14
9423;BME280;65863;49.506;10.400;2023-05-03T07:42:59;98952.72;;;10.55;70.92
9423;BME280;65863;49.506;10.400;2023-05-03T07:45:43;98935.09;;;10.54;71.52
9423;BME280;65863;49.506;10.400;2023-05-03T07:48:27;98951.78;;;11.03;71.45
9423;BME280;65863;49.506;10.400;2023-05-03T07:51:11;98936.78;;;10.82;70.79
9423;BME280;65863;49.506;10.400;2023-05-03T07:53:55;98956.41;;;11.33;71.24
9423;BME280;65863;49.506;10.400;2023-05-03T07:56:39;98922.75;;;11.60;70.32
9423;BME280;65863;49.506;10.400;2023-05-03T07:59:23;98919.72;;;11.85;69.75
9423;BME280;65863;49.506;10.400;2023-05-03T08:02:07;98888.00;;;11.58;67.84
9423;BME280;65863;49.506;10.400;2023-05-03T08:04:51;98943.13;;;12.20;67.84
9423;BME280;65863;49.506;10.400;2023-05-03T08:07:35;98912.41;;;11.95;67.15
9423;BME280;65863;49.506;10.400;2023-05-03T08:10:19;98888.78;;;12.12;67.01
9423;BME280;65863;49.506;10.400;2023-05-03T08:13:04;98857.19;;;11.92;66.53
9423;BME280;65863;49.506;10.400;2023-05-03T08:15:51;98912.31;;;12.62;66.11
9423;BME280;65863;49.506;10.400;2023-05-03T08:18:35;98937.09;;;12.98;65.07
9423;BME280;65863;49.506;10.400;2023-05-03T08:21:19;98913.53;;;12.40;64.24
9423;BME280;65863;49.506;10.400;2023-05-03T08:24:04;98894.88;;;12.02;64.32
9423;BME280;65863;49.506;10.400;2023-05-03T08:26:49;98918.44;;;12.74;65.04
9423;BME280;65863;49.506;10.400;2023-05-03T08:29:33;98894.78;;;12.56;64.82
9423;BME280;65863;49.506;10.400;2023-05-03T08:32:19;98952.38;;;13.24;65.03
9423;BME280;65863;49.506;10.400;2023-05-03T08:35:05;98869.22;;;12.06;64.19
9423;BME280;65863;49.506;10.400;2023-05-03T08:37:49;98916.13;;;12.86;64.60
9423;BME280;65863;49.506;10.400;2023-05-03T08:40:35;98921.59;;;12.09;64.04
9423;BME280;65863;49.506;10.400;2023-05-03T08:43:22;98941.81;;;12.48;64.81
9423;BME280;65863;49.506;10.400;2023-05-03T08:46:12;98876.22;;;11.86;64.28
9423;BME280;65863;49.506;10.400;2023-05-03T08:48:57;98945.63;;;12.71;64.94
9423;BME280;65863;49.506;10.400;2023-05-03T08:51:43;98926.03;;;13.00;64.22
9423;BME280;65863;49.506;10.400;2023-05-03T08:54:30;98951.31;;;13.48;63.17
9423;BME280;65863;49.506;10.400;2023-05-03T08:57:15;98927.69;;;13.17;61.45
9423;BME280;65863;49.506;10.400;2023-05-03T08:59:59;98907.47;;;12.84;61.64
9423;BME280;65863;49.506;10.400;2023-05-03T09:02:43;98923.84;;;13.06;62.08
9423;BME280;65863;49.506;10.400;2023-05-03T09:05:31;98953.59;;;13.50;61.16
9423;BME280;65863;49.506;10.400;2023-05-03T09:08:16;98897.28;;;13.65;60.61
9423;BME280;65863;49.506;10.400;2023-05-03T09:11:05;98835.78;;;12.71;59.22
9423;BME280;65863;49.506;10.400;2023-05-03T09:14:21;98957.59;;;13.83;58.95
9423;BME280;65863;49.506;10.400;2023-05-03T09:17:18;98942.03;;;13.61;58.41
9423;BME280;65863;49.506;10.400;2023-05-03T09:20:04;98934.13;;;13.88;57.83
9423;BME280;65863;49.506;10.400;2023-05-03T09:22:51;98960.00;;;14.37;56.81
9423;BME280;65863;49.506;10.400;2023-05-03T09:25:50;98950.78;;;14.36;55.90
9423;BME280;65863;49.506;10.400;2023-05-03T09:28:40;98959.31;;;14.52;55.21
9423;BME280;65863;49.506;10.400;2023-05-03T09:31:31;98956.75;;;14.25;55.49
9423;BME280;65863;49.506;10.400;2023-05-03T09:34:22;98918.50;;;14.24;56.90
9423;BME280;65863;49.506;10.400;2023-05-03T09:37:06;98928.97;;;14.44;55.73
9423;BME280;65863;49.506;10.400;2023-05-03T09:40:04;98912.44;;;14.56;56.36
9423;BME280;65863;49.506;10.400;2023-05-03T09:43:08;98925.03;;;14.55;55.65
9423;BME280;65863;49.506;10.400;2023-05-03T09:46:06;98939.56;;;15.19;55.73
9423;BME280;65863;49.506;10.400;2023-05-03T09:48:51;98929.38;;;15.16;54.85
9423;BME280;65863;49.506;10.400;2023-05-03T09:51:38;98904.31;;;15.20;54.46
9423;BME280;65863;49.506;10.400;2023-05-03T09:54:24;98873.13;;;14.66;53.66
9423;BME280;65863;49.506;10.400;2023-05-03T09:57:08;98933.34;;;15.13;54.22
9423;BME280;65863;49.506;10.400;2023-05-03T09:59:53;98944.22;;;15.01;55.10
9423;BME280;65863;49.506;10.400;2023-05-03T10:02:37;98880.56;;;15.15;55.37
9423;BME280;65863;49.506;10.400;2023-05-03T10:05:21;98900.91;;;15.68;54.29
9423;BME280;65863;49.506;10.400;2023-05-03T10:08:06;98903.94;;;15.08;53.21
9423;BME280;65863;49.506;10.400;2023-05-03T10:10:50;98901.56;;;14.68;54.77
9423;BME280;65863;49.506;10.400;2023-05-03T10:13:37;98849.88;;;14.44;55.43
9423;BME280;65863;49.506;10.400;2023-05-03T10:16:31;98917.53;;;15.79;54.10
9423;BME280;65863;49.506;10.400;2023-05-03T10:19:22;98892.59;;;15.55;53.40
9423;BME280;65863;49.506;10.400;2023-05-03T10:22:10;98893.19;;;15.45;53.96
9423;BME280;65863;49.506;10.400;2023-05-03T10:30:36;98878.41;;;16.01;52.25
9423;BME280;65863;49.506;10.400;2023-05-03T10:33:31;98885.00;;;15.96;52.41
9423;BME280;65863;49.506;10.400;2023-05-03T10:36:17;98906.00;;;16.41;52.83
9423;BME280;65863;49.506;10.400;2023-05-03T10:39:02;98924.41;;;16.17;52.14
9423;BME280;65863;49.506;10.400;2023-05-03T10:41:56;98911.91;;;16.28;52.43
9423;BME280;65863;49.506;10.400;2023-05-03T10:44:52;98896.09;;;16.98;52.47
9423;BME280;65863;49.506;10.400;2023-05-03T10:47:36;98875.16;;;16.86;51.89
9423;BME280;65863;49.506;10.400;2023-05-03T10:50:24;98904.09;;;16.44;52.07
9423;BME280;65863;49.506;10.400;2023-05-03T10:53:40;98900.78;;;17.29;51.68
9423;BME280;65863;49.506;10.400;2023-05-03T10:56:26;98899.00;;;17.16;50.69
9423;BME280;65863;49.506;10.400;2023-05-03T10:59:10;98878.00;;;16.86;50.18
9423;BME280;65863;49.506;10.400;2023-05-03T11:01:55;98865.50;;;16.23;50.26
9423;BME280;65863;49.506;10.400;2023-05-03T11:04:44;98893.66;;;17.45;50.89
9423;BME280;65863;49.506;10.400;2023-05-03T11:07:30;98852.69;;;17.56;48.91
9423;BME280;65863;49.506;10.400;2023-05-03T11:10:16;98854.72;;;18.16;47.99
9423;BME280;65863;49.506;10.400;2023-05-03T11:13:00;98878.09;;;17.71;47.79
9423;BME280;65863;49.506;10.400;2023-05-03T11:15:44;98870.28;;;17.37;48.36
9423;BME280;65863;49.506;10.400;2023-05-03T11:18:28;98847.78;;;17.74;48.16
9423;BME280;65863;49.506;10.400;2023-05-03T11:21:12;98853.63;;;18.29;46.82
9423;BME280;65863;49.506;10.400;2023-05-03T11:23:57;98887.75;;;18.29;45.78
9423;BME280;65863;49.506;10.400;2023-05-03T11:26:41;98854.59;;;18.41;46.57
9423;BME280;65863;49.506;10.400;2023-05-03T11:29:26;98827.31;;;18.55;46.31
9423;BME280;65863;49.506;10.400;2023-05-03T11:32:10;98840.09;;;18.64;45.89
9423;BME280;65863;49.506;10.400;2023-05-03T11:34:55;98858.13;;;19.04;46.13
9423;BME280;65863;49.506;10.400;2023-05-03T11:37:41;98843.78;;;18.12;47.17
9423;BME280;65863;49.506;10.400;2023-05-03T11:40:25;98842.09;;;17.74;47.84
9423;BME280;65863;49.506;10.400;2023-05-03T11:43:09;98851.69;;;17.44;47.67
9423;BME280;65863;49.506;10.400;2023-05-03T11:45:56;98834.34;;;18.10;47.61
9423;BME280;65863;49.506;10.400;2023-05-03T11:48:42;98841.34;;;18.26;45.79
9423;BME280;65863;49.506;10.400;2023-05-03T11:51:27;98841.28;;;17.99;44.85
9423;BME280;65863;49.506;10.400;2023-05-03T11:54:10;98847.88;;;17.24;46.01
9423;BME280;65863;49.506;10.400;2023-05-03T11:56:56;98847.47;;;17.27;48.54
9423;BME280;65863;49.506;10.400;2023-05-03T11:59:40;98845.03;;;17.66;49.07
9423;BME280;65863;49.506;10.400;2023-05-03T12:02:25;98830.50;;;17.80;47.75
9423;BME280;65863;49.506;10.400;2023-05-03T12:05:10;98826.78;;;17.34;46.92
9423;BME280;65863;49.506;10.400;2023-05-03T12:07:54;98840.69;;;16.31;49.17
9423;BME280;65863;49.506;10.400;2023-05-03T12:10:38;98823.09;;;16.00;49.53
9423;BME280;65863;49.506;10.400;2023-05-03T12:13:31;98847.47;;;15.88;49.98
9423;BME280;65863;49.506;10.400;2023-05-03T12:16:15;98836.50;;;15.92;49.42
9423;BME280;65863;49.506;10.400;2023-05-03T12:19:03;98816.78;;;15.61;50.77
9423;BME280;65863;49.506;10.400;2023-05-03T12:21:47;98809.88;;;16.43;51.02
9423;BME280;65863;49.506;10.400;2023-05-03T12:24:31;98801.25;;;17.34;48.79
9423;BME280;65863;49.506;10.400;2023-05-03T12:27:15;98825.22;;;18.11;47.23
9423;BME280;65863;49.506;10.400;2023-05-03T12:29:59;98813.53;;;17.37;46.60
9423;BME280;65863;49.506;10.400;2023-05-03T12:32:44;98809.28;;;17.81;48.27
9423;BME280;65863;49.506;10.400;2023-05-03T12:35:28;98805.44;;;17.68;47.52
9423;BME280;65863;49.506;10.400;2023-05-03T12:38:12;98778.13;;;17.73;45.42
9423;BME280;65863;49.506;10.400;2023-05-03T12:40:56;98808.03;;;18.09;44.56
9423;BME280;65863;49.506;10.400;2023-05-03T12:43:40;98797.19;;;18.80;43.70
9423;BME280;65863;49.506;10.400;2023-05-03T12:46:24;98722.41;;;18.50;42.17
9423;BME280;65863;49.506;10.400;2023-05-03T12:49:08;98806.09;;;18.93;42.25
9423;BME280;65863;49.506;10.400;2023-05-03T12:51:52;98771.25;;;19.03;42.78
9423;BME280;65863;49.506;10.400;2023-05-03T12:54:38;98789.38;;;19.07;43.13
9423;BME280;65863;49.506;10.400;2023-05-03T12:57:22;98775.72;;;18.32;42.84
9423;BME280;65863;49.506;10.400;2023-05-03T13:00:07;98758.47;;;18.47;43.80
9423;BME280;65863;49.506;10.400;2023-05-03T13:02:51;98784.59;;;18.73;43.00
9423;BME280;65863;49.506;10.400;2023-05-03T13:05:36;98741.59;;;18.59;42.70
9423;BME280;65863;49.506;10.400;2023-05-03T13:08:20;98774.72;;;19.11;42.08
9423;BME280;65863;49.506;10.400;2023-05-03T13:11:05;98777.50;;;18.91;42.15
9423;BME280;65863;49.506;10.400;2023-05-03T13:13:51;98778.06;;;19.47;41.65
9423;BME280;65863;49.506;10.400;2023-05-03T13:16:35;98724.91;;;18.83;39.39
9423;BME280;65863;49.506;10.400;2023-05-03T13:19:22;98771.31;;;19.22;38.51
9423;BME280;65863;49.506;10.400;2023-05-03T13:22:06;98742.09;;;19.32;36.91
9423;BME280;65863;49.506;10.400;2023-05-03T13:24:50;98748.66;;;19.15;36.74
9423;BME280;65863;49.506;10.400;2023-05-03T13:27:34;98777.63;;;19.70;38.03
9423;BME280;65863;49.506;10.400;2023-05-03T13:30:19;98742.66;;;18.64;38.48
9423;BME280;65863;49.506;10.400;2023-05-03T13:33:04;98783.28;;;18.47;39.31
9423;BME280;65863;49.506;10.400;2023-05-03T13:35:48;98775.16;;;18.70;37.78
9423;BME280;65863;49.506;10.400;2023-05-03T13:38:32;98698.66;;;18.65;36.48
9423;BME280;65863;49.506;10.400;2023-05-03T13:41:17;98753.38;;;18.55;37.36
9423;BME280;65863;49.506;10.400;2023-05-03T13:44:01;98715.59;;;18.72;38.11
9423;BME280;65863;49.506;10.400;2023-05-03T13:46:46;98736.41;;;18.38;38.76
9423;BME280;65863;49.506;10.400;2023-05-03T13:49:30;98749.53;;;18.98;40.37
9423;BME280;65863;49.506;10.400;2023-05-03T13:52:14;98744.78;;;19.59;40.39
9423;BME280;65863;49.506;10.400;2023-05-03T13:54:59;98744.81;;;19.49;38.50
9423;BME280;65863;49.506;10.400;2023-05-03T13:57:43;98761.47;;;19.82;39.03
9423;BME280;65863;49.506;10.400;2023-05-03T14:00:27;98750.06;;;19.63;38.30
9423;BME280;65863;49.506;10.400;2023-05-03T14:03:11;98760.81;;;19.15;38.69
9423;BME280;65863;49.506;10.400;2023-05-03T14:05:55;98715.72;;;19.12;38.18
9423;BME280;65863;49.506;10.400;2023-05-03T14:08:39;98726.06;;;19.66;36.97
9423;BME280;65863;49.506;10.400;2023-05-03T14:11:23;98714.06;;;18.99;37.64
9423;BME280;65863;49.506;10.400;2023-05-03T14:14:07;98713.59;;;19.12;37.21
9423;BME280;65863;49.506;10.400;2023-05-03T14:16:51;98720.84;;;19.33;37.39
9423;BME280;65863;49.506;10.400;2023-05-03T14:19:35;98693.72;;;19.32;37.14
9423;BME280;65863;49.506;10.400;2023-05-03T14:22:20;98692.19;;;18.91;36.30
9423;BME280;65863;49.506;10.400;2023-05-03T14:25:04;98713.97;;;18.79;37.35
9423;BME280;65863;49.506;10.400;2023-05-03T14:27:48;98720.78;;;18.56;38.61
9423;BME280;65863;49.506;10.400;2023-05-03T14:30:32;98655.56;;;18.58;38.07
9423;BME280;65863;49.506;10.400;2023-05-03T14:33:16;98707.78;;;19.10;36.11
9423;BME280;65863;49.506;10.400;2023-05-03T14:36:02;98711.41;;;19.59;36.84
9423;BME280;65863;49.506;10.400;2023-05-03T14:38:46;98700.28;;;19.24;37.69
9423;BME280;65863;49.506;10.400;2023-05-03T14:41:30;98708.69;;;19.61;39.19
9423;BME280;65863;49.506;10.400;2023-05-03T14:44:15;98666.59;;;19.21;39.67
9423;BME280;65863;49.506;10.400;2023-05-03T14:47:00;98707.47;;;19.16;39.33
9423;BME280;65863;49.506;10.400;2023-05-03T14:49:44;98638.59;;;18.41;39.38
9423;BME280;65863;49.506;10.400;2023-05-03T14:52:28;98705.69;;;19.20;39.42
9423;BME280;65863;49.506;10.400;2023-05-03T14:55:12;98703.75;;;19.42;37.29
9423;BME280;65863;49.506;10.400;2023-05-03T14:57:56;98688.47;;;19.08;34.81
9423;BME280;65863;49.506;10.400;2023-05-03T15:00:41;98692.66;;;19.27;35.99